Hano, Sweden

11:04 AM CEST on July 29, 2014 (GMT +0200)
Ronneby Air Base (ESDF) Elev 190 ft | 56.27 °N, 15.27 °E | Change Station

Current weather conditions updated 14 minutes ago

Clear
Clear
79 °F
Feels Like 79 °F
N
2
Wind Variable Wind from Variable

Today is forecast to be Much Cooler than yesterday. Late night thunderstorms tonight.

Today
High -- | Low -- °F
--% Chance of Precip.
Yesterday
High -- | Low -- °F
Precip. -- in
4:58 AM 9:14 PM
Waxing Crescent, 5% visible
Pressure 29.86 in
Visibility -9999.0 miles
Clouds
Dew Point 66 °F
Humidity 65%
Rainfall 0.00 in
Snow Depth Not available.
UV Not available.
Pollen Not available.
Air Quality Not available.
Flu Activity Not available.
METAR ESDF 290850Z VRB02KT CAVOK 26/19 Q1011

More Conditions Fewer Conditions

Pressure 29.86 in
Visibility -9999.0 miles
Clouds
Dew Point 66 °F
Humidity 65%
Rainfall 0.00 in
Snow Depth Not available.
UV Not available.
Pollen Not available.
Air Quality Not available.
Flu Activity Not available.
METAR ESDF 290850Z VRB02KT CAVOK 26/19 Q1011

More Conditions Fewer Conditions

10-Day Weather Forecast

Almanac

Astronomy

Jul. 29, 2014 Rise Set
Actual Time 4:58 AM CEST 9:14 PM CEST
Civil Twilight 4:08 AM CEST 10:03 PM CEST
Nautical Twilight 2:51 AM CEST 11:19 PM CEST
Astronomical Twilight 1:39 AM CEST 12:34 AM CEST
Moon 7:56 AM CEST 9:35 PM CEST
Length of Visible Light 17h 55m
Length of Day
16h 15m
Tomorrow will be 3m 45s shorter.
Waxing Crescent, 5% of the Moon is Illuminated
Today
Waxing Crescent
Aug 3
First Quarter
Aug 10
Full
Aug 17
Last Quarter
Aug 25
New

Yesterday's Extremes

Country Highs Country Lows

Community

WunderPhotos

Upload Photos

1,738,655 photos uploaded!

Nearby

Snow Depth

Not available.

Earthquake Activity

City Distance Mag. Time & Date
No recent earthquake activity has been reported nearby.
Minimum magnitude displayed is 2.5.

Coastal Water Temperatures

Place Temperature
No Stations Reporting

Nearby Weather Stations

There are no personal weather stations in this area.